Time;durP1;ratioP1;P1;durP2;ratioP2;P2;SDS_P1;SDS_P2;PMS_P1;PMS_P2;Temp;Humidity;BMP_temperature;BMP_pressure;BME280_temperature;BME280_humidity;BME280_pressure;Samples;Min_cycle;Max_cycle;Signal;HPM_P1;HPM_P2
2023/08/29 00:00:28;;;;;;;8.55;3.50;;;;;;;27.11;36.78;94534.50;5014241;28;20475;-86
2023/08/29 00:02:53;;;;;;;7.07;3.28;;;;;;;27.33;36.64;94546.09;5014156;28;20116;-80
2023/08/29 00:05:19;;;;;;;8.55;3.55;;;;;;;27.29;37.10;94562.47;5015282;28;20515;-80
2023/08/29 00:07:46;;;;;;;9.30;3.30;;;;;;;27.33;36.84;94556.97;5015671;28;20030;-80
2023/08/29 00:10:12;;;;;;;7.60;3.45;;;;;;;27.28;36.51;94545.34;5016121;28;20042;-81
2023/08/29 00:12:37;;;;;;;7.80;3.70;;;;;;;27.26;36.71;94536.78;5016313;28;20175;-80
2023/08/29 00:15:04;;;;;;;9.48;3.65;;;;;;;26.84;36.77;94477.06;5016365;28;20140;-80
2023/08/29 00:17:30;;;;;;;6.20;3.08;;;;;;;27.17;37.00;94538.38;5014871;28;20125;-80
2023/08/29 00:19:56;;;;;;;9.85;3.22;;;;;;;27.27;36.66;94530.19;5016379;28;20120;-80
2023/08/29 00:22:21;;;;;;;7.82;3.00;;;;;;;27.21;37.30;94544.59;5014192;28;20041;-80
2023/08/29 00:24:52;;;;;;;7.47;3.53;;;;;;;27.02;37.55;94561.38;5014054;28;20557;-80
2023/08/29 00:27:19;;;;;;;11.98;3.80;;;;;;;27.01;37.27;94527.16;5014600;28;20042;-81
2023/08/29 00:29:45;;;;;;;6.60;3.58;;;;;;;27.07;36.96;94539.22;5015824;28;20041;-81
2023/08/29 00:32:11;;;;;;;9.48;3.90;;;;;;;26.77;37.60;94507.78;5013438;28;20049;-80
2023/08/29 00:34:37;;;;;;;7.10;3.47;;;;;;;26.60;37.96;94495.00;5015945;28;20072;-80
2023/08/29 00:37:03;;;;;;;3.70;2.90;;;;;;;26.56;37.88;94505.09;5014200;28;20042;-81
2023/08/29 00:39:28;;;;;;;7.60;3.42;;;;;;;26.65;37.77;94515.56;5014272;28;20145;-80
2023/08/29 00:41:54;;;;;;;10.43;3.80;;;;;;;26.86;37.66;94540.78;5014309;28;20389;-80
2023/08/29 00:44:20;;;;;;;8.77;3.20;;;;;;;26.57;37.80;94497.69;5016100;28;20033;-80
2023/08/29 00:46:46;;;;;;;8.15;3.80;;;;;;;26.71;37.92;94511.28;5015981;28;20026;-80
2023/08/29 00:49:14;;;;;;;7.47;3.65;;;;;;;26.78;38.00;94544.66;5013504;28;20033;-80
2023/08/29 00:51:40;;;;;;;5.88;3.58;;;;;;;26.71;37.86;94519.44;5014067;28;20179;-80
2023/08/29 00:54:08;;;;;;;7.30;3.83;;;;;;;26.62;37.93;94510.94;5014516;28;20057;-80
2023/08/29 00:56:34;;;;;;;9.15;3.60;;;;;;;26.72;37.75;94516.31;5015711;28;20089;-80
2023/08/29 00:59:01;;;;;;;6.55;3.08;;;;;;;26.59;37.83;94526.06;5013240;28;20113;-81
2023/08/29 01:01:28;;;;;;;8.90;3.85;;;;;;;26.55;38.73;94511.69;5013630;28;20497;-80
2023/08/29 01:03:53;;;;;;;6.68;3.47;;;;;;;26.49;38.27;94496.94;5014740;28;20160;-80
2023/08/29 01:06:19;;;;;;;10.50;3.70;;;;;;;26.60;38.07;94521.41;5014321;28;20050;-80
2023/08/29 01:08:44;;;;;;;14.95;3.88;;;;;;;26.41;38.51;94495.41;5013183;28;20033;-86
2023/08/29 01:11:13;;;;;;;6.28;3.40;;;;;;;26.78;38.36;94535.72;5015579;28;20037;-81
2023/08/29 01:13:58;;;;;;;9.68;3.70;;;;;;;26.55;38.29;94508.97;5013755;28;20497;-81
2023/08/29 01:16:30;;;;;;;6.88;3.70;;;;;;;26.67;38.53;94535.78;5016177;28;20030;-80
2023/08/29 01:18:57;;;;;;;8.90;3.58;;;;;;;26.59;38.78;94530.72;5014577;28;20064;-80
2023/08/29 01:21:28;;;;;;;6.30;3.10;;;;;;;26.51;38.94;94525.31;5015882;28;20034;-80
2023/08/29 01:24:01;;;;;;;7.53;3.65;;;;;;;26.36;38.62;94488.44;5014965;28;20036;-80
2023/08/29 01:26:28;;;;;;;7.25;3.88;;;;;;;26.26;38.72;94451.16;5014201;28;20048;-81
2023/08/29 01:28:55;;;;;;;11.35;3.78;;;;;;;26.57;38.84;94497.69;5015550;28;20476;-80
2023/08/29 01:31:21;;;;;;;7.60;3.78;;;;;;;26.60;38.72;94497.72;5013817;28;20057;-80
2023/08/29 01:33:47;;;;;;;7.35;3.40;;;;;;;26.51;38.87;94497.34;5013262;28;20460;-80
2023/08/29 01:36:13;;;;;;;8.00;3.20;;;;;;;26.30;38.96;94453.88;5012857;28;20034;-80
2023/08/29 01:38:38;;;;;;;9.73;3.97;;;;;;;26.19;39.20;94455.78;5014631;28;20038;-80
2023/08/29 01:41:04;;;;;;;6.88;3.42;;;;;;;26.22;38.99;94449.59;5014716;28;20513;-80
2023/08/29 01:43:29;;;;;;;4.85;3.45;;;;;;;26.06;39.11;94441.84;5014205;28;20445;-80
2023/08/29 01:45:55;;;;;;;7.40;3.92;;;;;;;26.29;39.28;94469.41;5014791;28;20117;-80
2023/08/29 01:48:21;;;;;;;6.68;3.38;;;;;;;26.27;39.37;94474.44;5015006;28;20400;-80
2023/08/29 01:50:47;;;;;;;3.97;3.30;;;;;;;26.03;39.50;94439.88;5014719;28;20041;-80
2023/08/29 01:53:13;;;;;;;9.63;4.10;;;;;;;26.41;39.58;94487.25;5014979;28;20411;-81
2023/08/29 01:55:39;;;;;;;5.25;3.38;;;;;;;26.43;39.20;94485.69;5013437;28;20062;-80
2023/08/29 01:58:05;;;;;;;10.23;3.75;;;;;;;26.06;39.34;94434.47;5013078;28;20073;-81
2023/08/29 02:00:31;;;;;;;11.32;4.38;;;;;;;26.40;39.39;94494.63;5015182;28;20038;-80
2023/08/29 02:02:57;;;;;;;5.45;3.63;;;;;;;26.33;39.40;94493.84;5013860;28;20129;-80
2023/08/29 02:05:23;;;;;;;9.35;3.85;;;;;;;25.63;39.56;94392.94;5014736;28;20036;-80
2023/08/29 02:07:49;;;;;;;9.40;3.50;;;;;;;25.95;39.40;94449.19;5014421;28;20039;-81
2023/08/29 02:10:15;;;;;;;11.27;4.03;;;;;;;26.27;39.56;94492.69;5015486;28;20033;-80
2023/08/29 02:12:40;;;;;;;6.90;3.40;;;;;;;26.03;39.46;94462.41;5013872;28;20030;-80
2023/08/29 02:15:06;;;;;;;8.77;3.55;;;;;;;26.08;39.60;94480.28;5014228;28;20061;-80
2023/08/29 02:17:33;;;;;;;11.82;3.67;;;;;;;25.75;39.91;94441.44;5014579;28;20034;-80
2023/08/29 02:19:58;;;;;;;6.75;3.53;;;;;;;26.00;39.64;94468.63;5015145;28;20118;-80
2023/08/29 02:22:24;;;;;;;6.55;3.53;;;;;;;26.10;39.61;94461.63;5011964;28;20057;-81
2023/08/29 02:24:49;;;;;;;8.75;3.85;;;;;;;26.07;39.39;94470.56;5013164;28;20036;-81
2023/08/29 02:27:15;;;;;;;7.05;3.72;;;;;;;25.94;39.56;94467.44;5012893;28;20041;-81
2023/08/29 02:29:40;;;;;;;6.97;3.35;;;;;;;25.94;39.88;94477.56;5011252;28;20208;-81
2023/08/29 02:32:06;;;;;;;12.80;3.65;;;;;;;25.91;39.89;94465.53;5013398;28;20094;-81
2023/08/29 02:34:31;;;;;;;10.00;3.35;;;;;;;26.03;39.88;94467.84;5012509;28;20070;-81
2023/08/29 02:36:56;;;;;;;8.45;3.42;;;;;;;25.86;39.91;94446.13;5011018;28;20045;-81
2023/08/29 02:39:22;;;;;;;9.88;3.80;;;;;;;25.95;39.87;94452.69;5011428;28;20042;-80
2023/08/29 02:41:48;;;;;;;10.90;3.60;;;;;;;26.03;39.71;94469.78;5011094;28;20026;-80
2023/08/29 02:44:14;;;;;;;8.98;3.78;;;;;;;25.88;40.11;94452.69;5012292;28;20113;-81
2023/08/29 02:46:39;;;;;;;7.43;3.90;;;;;;;25.72;40.30;94439.50;5011033;28;20040;-80
2023/08/29 02:49:04;;;;;;;7.95;3.58;;;;;;;25.24;40.12;94359.56;5010947;28;20121;-80
2023/08/29 02:51:30;;;;;;;8.57;3.78;;;;;;;26.01;40.27;94483.78;5013132;28;20037;-81
2023/08/29 02:53:55;;;;;;;6.35;3.47;;;;;;;25.89;40.08;94467.84;5013737;28;20041;-81
2023/08/29 02:56:21;;;;;;;8.13;4.15;;;;;;;25.86;40.46;94492.28;5014997;28;20124;-81
2023/08/29 02:58:46;;;;;;;13.93;4.43;;;;;;;25.59;40.31;94443.78;5015046;28;20038;-80
2023/08/29 03:01:12;;;;;;;13.23;5.57;;;;;;;25.74;40.49;94466.28;5015113;28;20034;-80
2023/08/29 03:03:38;;;;;;;10.32;4.40;;;;;;;25.77;40.56;94470.94;5014852;28;20038;-81
2023/08/29 03:06:03;;;;;;;8.57;4.00;;;;;;;25.86;40.52;94490.34;5016219;28;20052;-80
2023/08/29 03:08:29;;;;;;;11.82;4.18;;;;;;;25.21;41.17;94431.66;5016643;28;20026;-81
2023/08/29 03:10:54;;;;;;;10.98;3.55;;;;;;;25.41;41.13;94451.06;5015919;28;20034;-80
2023/08/29 03:13:21;;;;;;;7.57;4.22;;;;;;;25.41;40.97;94470.06;5016342;28;20029;-81
2023/08/29 03:15:47;;;;;;;11.52;4.47;;;;;;;25.55;41.10;94483.69;5014969;28;20107;-80
2023/08/29 03:18:13;;;;;;;9.13;3.95;;;;;;;25.60;41.21;94479.84;5015726;28;20042;-80
2023/08/29 03:20:39;;;;;;;7.10;3.28;;;;;;;25.42;41.24;94455.34;5016108;28;20034;-81
2023/08/29 03:23:05;;;;;;;9.77;4.13;;;;;;;25.46;41.51;94480.56;5014746;28;20104;-81
2023/08/29 03:25:30;;;;;;;7.18;3.70;;;;;;;25.34;41.41;94464.63;5014567;28;20128;-81
2023/08/29 03:27:56;;;;;;;8.18;3.75;;;;;;;25.35;41.17;94447.97;5014717;28;20029;-80
2023/08/29 03:30:21;;;;;;;12.23;3.72;;;;;;;25.50;41.14;94484.06;5018129;28;20041;-87
2023/08/29 03:32:50;;;;;;;6.72;3.80;;;;;;;25.32;41.53;94466.97;5017957;28;20110;-87
2023/08/29 03:35:15;;;;;;;11.23;3.72;;;;;;;25.52;41.40;94483.69;5018904;28;20060;-87
2023/08/29 03:37:41;;;;;;;7.28;3.78;;;;;;;25.37;41.34;94472.78;5018238;28;20034;-87
2023/08/29 03:40:07;;;;;;;7.25;4.03;;;;;;;25.48;41.62;94483.66;5018262;28;20041;-86
2023/08/29 03:42:33;;;;;;;5.90;3.83;;;;;;;25.20;41.79;94454.50;5017572;28;20136;-87
2023/08/29 03:44:58;;;;;;;6.22;3.53;;;;;;;25.13;42.24;94476.19;5022330;28;20080;-86
2023/08/29 03:47:24;;;;;;;8.55;3.85;;;;;;;25.16;42.03;94456.47;5048041;28;20037;-87
2023/08/29 03:49:49;;;;;;;7.45;4.35;;;;;;;25.17;42.10;94451.81;5023554;28;20463;-87
2023/08/29 03:52:22;;;;;;;7.38;3.72;;;;;;;25.16;42.55;94478.16;5022765;28;20030;-87
2023/08/29 03:54:48;;;;;;;11.23;4.22;;;;;;;25.15;42.34;94473.88;5026508;28;20117;-87
2023/08/29 03:57:13;;;;;;;8.70;3.85;;;;;;;24.93;42.36;94443.22;5019530;28;20072;-86
2023/08/29 03:59:39;;;;;;;7.05;4.20;;;;;;;25.20;42.34;94461.88;5017331;28;20042;-87
2023/08/29 04:02:06;;;;;;;6.57;3.40;;;;;;;25.36;42.08;94473.94;5016664;28;20030;-87
2023/08/29 04:04:32;;;;;;;8.98;4.05;;;;;;;24.94;42.27;94439.34;5015927;28;20029;-86
2023/08/29 04:06:59;;;;;;;13.98;4.15;;;;;;;25.02;42.08;94425.78;5017037;28;20030;-87
2023/08/29 04:09:24;;;;;;;11.20;4.13;;;;;;;25.15;42.01;94446.75;5016278;28;20030;-87
2023/08/29 04:11:50;;;;;;;6.15;4.20;;;;;;;25.27;42.15;94464.59;5016850;28;20072;-87
2023/08/29 04:14:15;;;;;;;8.15;4.20;;;;;;;25.31;42.13;94454.56;5014864;28;20022;-86
2023/08/29 04:16:41;;;;;;;9.85;4.38;;;;;;;25.24;42.17;94477.03;5016102;28;20122;-86
2023/08/29 04:19:07;;;;;;;10.23;4.90;;;;;;;25.15;41.81;94446.75;5014847;28;20025;-86
2023/08/29 04:21:33;;;;;;;7.40;4.03;;;;;;;25.29;42.06;94482.06;5014540;28;20421;-87
2023/08/29 04:23:59;;;;;;;6.82;4.13;;;;;;;25.18;42.33;94453.34;5013810;28;20424;-86
2023/08/29 04:26:25;;;;;;;7.68;3.75;;;;;;;25.29;42.35;94465.78;5014499;28;20056;-87
2023/08/29 04:28:51;;;;;;;9.73;3.97;;;;;;;24.96;42.63;94428.09;5015938;28;20085;-87
2023/08/29 04:31:20;;;;;;;13.23;4.90;;;;;;;25.02;42.58;94437.44;5014313;28;20030;-87
2023/08/29 04:33:46;;;;;;;12.27;4.28;;;;;;;25.23;42.51;94461.91;5013705;28;20041;-87
2023/08/29 04:36:15;;;;;;;11.55;4.13;;;;;;;24.99;42.51;94438.19;5014802;28;20199;-87
2023/08/29 04:38:42;;;;;;;9.45;4.07;;;;;;;25.02;42.77;94442.06;5015617;28;20034;-87
2023/08/29 04:41:08;;;;;;;6.40;4.35;;;;;;;25.26;42.37;94463.81;5015266;28;20061;-85
2023/08/29 04:43:33;;;;;;;11.00;4.07;;;;;;;25.10;42.70;94438.97;5015353;28;20034;-86
2023/08/29 04:45:59;;;;;;;8.77;4.13;;;;;;;25.32;42.34;94456.88;5015706;28;20037;-86
2023/08/29 04:48:24;;;;;;;6.10;3.88;;;;;;;25.46;42.01;94463.50;5016662;28;20030;-85
2023/08/29 04:50:49;;;;;;;7.68;4.82;;;;;;;25.54;42.15;94467.78;5016734;28;20034;-86
2023/08/29 04:53:15;;;;;;;8.55;4.53;;;;;;;25.35;42.51;94466.19;5016789;28;20057;-86
2023/08/29 04:55:40;;;;;;;8.63;4.30;;;;;;;25.46;42.37;94479.78;5017010;28;20053;-86
2023/08/29 04:58:06;;;;;;;9.82;4.05;;;;;;;25.51;42.00;94477.47;5013760;28;20099;-86
2023/08/29 05:00:31;;;;;;;4.57;3.63;;;;;;;25.43;42.21;94453.41;5014729;28;20036;-86
2023/08/29 05:02:57;;;;;;;17.48;4.90;;;;;;;25.48;42.40;94448.38;5023695;28;20063;-86
2023/08/29 05:05:22;;;;;;;9.15;4.20;;;;;;;25.44;42.09;94425.09;5024908;28;20029;-85
2023/08/29 05:07:48;;;;;;;11.48;4.32;;;;;;;25.43;41.85;94404.53;5035175;28;20029;-86
2023/08/29 05:10:13;;;;;;;9.95;4.10;;;;;;;25.67;41.66;94434.47;5046904;28;20035;-85
2023/08/29 05:12:41;;;;;;;7.95;3.90;;;;;;;25.47;41.55;94405.34;5035058;28;20029;-85
2023/08/29 05:15:07;;;;;;;9.43;3.88;;;;;;;25.25;41.38;94382.81;5047806;28;20040;-85
2023/08/29 05:17:33;;;;;;;9.57;4.35;;;;;;;25.51;41.57;94433.25;5047047;28;20104;-85
2023/08/29 05:19:58;;;;;;;7.68;3.83;;;;;;;25.62;41.71;94439.50;5034921;28;20057;-86
2023/08/29 05:22:23;;;;;;;8.50;4.07;;;;;;;25.40;42.08;94427.81;5033270;28;20485;-86
2023/08/29 05:24:49;;;;;;;9.68;3.50;;;;;;;25.57;41.23;94435.19;5034054;28;20033;-85
2023/08/29 05:27:15;;;;;;;7.95;4.10;;;;;;;25.65;41.43;94436.78;5032211;28;20112;-84
2023/08/29 05:29:41;;;;;;;9.20;4.07;;;;;;;25.71;41.41;94434.44;5032215;28;20037;-85
2023/08/29 05:32:06;;;;;;;6.22;3.72;;;;;;;25.62;41.22;94417.78;5032510;28;20053;-84
2023/08/29 05:34:32;;;;;;;9.82;4.47;;;;;;;25.46;41.56;94409.22;5031875;28;20037;-84
2023/08/29 05:36:57;;;;;;;8.27;3.75;;;;;;;25.45;41.20;94375.09;5039125;28;20496;-84
2023/08/29 05:39:23;;;;;;;8.40;4.30;;;;;;;26.01;40.86;94448.44;5032476;28;20025;-84
2023/08/29 05:41:50;;;;;;;9.00;4.07;;;;;;;25.87;41.04;94437.56;5029337;28;20037;-86
2023/08/29 05:44:15;;;;;;;8.77;4.15;;;;;;;25.99;40.59;94444.56;5015422;28;20069;-85
2023/08/29 05:46:41;;;;;;;9.27;4.10;;;;;;;25.94;40.53;94421.25;5032370;28;20079;-85
2023/08/29 05:49:07;;;;;;;9.63;4.20;;;;;;;25.78;40.12;94385.59;5034150;28;20116;-86
2023/08/29 05:51:32;;;;;;;8.27;3.67;;;;;;;26.15;40.34;94436.78;5023636;28;20293;-85
2023/08/29 05:53:59;;;;;;;10.15;3.50;;;;;;;25.81;40.37;94379.38;5031910;28;20688;-86
2023/08/29 05:56:24;;;;;;;10.05;3.45;;;;;;;26.31;40.12;94450.00;5032093;28;20081;-85
2023/08/29 05:58:49;;;;;;;11.38;4.05;;;;;;;26.33;40.47;94436.78;5032761;28;20527;-85
2023/08/29 06:01:15;;;;;;;8.10;4.00;;;;;;;26.43;40.46;94441.41;5031223;28;20037;-85
2023/08/29 06:03:41;;;;;;;10.50;3.78;;;;;;;26.36;40.70;94428.63;5032777;28;20059;-85
2023/08/29 06:06:07;;;;;;;9.23;4.05;;;;;;;26.33;40.25;94420.47;5033047;28;20484;-85
2023/08/29 06:08:40;;;;;;;18.25;4.85;;;;;;;26.48;40.35;94441.00;5031133;28;20078;-85
2023/08/29 06:11:06;;;;;;;11.70;4.65;;;;;;;26.42;40.61;94440.63;5016379;28;20060;-86
2023/08/29 06:13:31;;;;;;;9.45;4.38;;;;;;;26.30;40.77;94416.59;5028132;28;20052;-86
2023/08/29 06:15:57;;;;;;;11.68;5.13;;;;;;;26.43;40.43;94422.38;5031945;28;20441;-86
2023/08/29 06:18:22;;;;;;;9.70;4.97;;;;;;;26.60;40.23;94439.81;5027115;28;20038;-85
2023/08/29 06:20:48;;;;;;;11.43;5.40;;;;;;;26.58;40.00;94429.34;5033757;28;20044;-85
2023/08/29 06:23:13;;;;;;;19.05;6.22;;;;;;;26.74;40.10;94445.22;5033674;28;20485;-86
2023/08/29 06:25:39;;;;;;;10.63;6.32;;;;;;;26.77;39.94;94442.50;5022864;28;20072;-85
2023/08/29 06:28:05;;;;;;;23.02;6.50;;;;;;;26.81;39.71;94440.53;5032761;28;20030;-85
2023/08/29 06:30:31;;;;;;;18.85;6.45;;;;;;;26.86;39.35;94445.56;5035587;28;20097;-84
2023/08/29 06:32:56;;;;;;;15.70;5.95;;;;;;;26.87;40.17;94443.59;5036151;28;20053;-85
2023/08/29 06:35:21;;;;;;;16.25;5.65;;;;;;;26.74;40.36;94432.41;5028190;28;20131;-85
2023/08/29 06:37:47;;;;;;;13.52;5.00;;;;;;;26.70;39.99;94412.56;5034713;28;20123;-85
2023/08/29 06:40:12;;;;;;;10.60;5.82;;;;;;;26.89;39.65;94458.38;5036157;28;20464;-85
2023/08/29 06:42:38;;;;;;;24.95;5.72;;;;;;;26.81;40.08;94435.09;5037809;28;20088;-86
2023/08/29 06:45:05;;;;;;;12.43;5.53;;;;;;;26.95;39.35;94434.28;5037723;28;20108;-86
2023/08/29 06:47:31;;;;;;;16.30;5.78;;;;;;;26.79;39.32;94404.00;5048360;28;20076;-85
2023/08/29 06:49:57;;;;;;;17.60;5.57;;;;;;;26.99;39.56;94426.13;5029274;28;20029;-85
2023/08/29 06:52:22;;;;;;;12.15;5.18;;;;;;;26.85;39.75;94414.06;5032267;28;20045;-85
2023/08/29 06:54:48;;;;;;;10.60;5.57;;;;;;;26.82;38.72;94401.28;5027511;28;20489;-85
2023/08/29 06:57:13;;;;;;;13.68;6.03;;;;;;;27.30;38.77;94455.13;5025332;28;20045;-84
2023/08/29 06:59:39;;;;;;;10.00;5.10;;;;;;;27.35;38.46;94446.53;5036152;28;20132;-80
2023/08/29 07:02:04;;;;;;;13.18;4.38;;;;;;;27.17;38.14;94408.50;5034421;28;20415;-80
2023/08/29 07:04:30;;;;;;;10.45;4.07;;;;;;;27.08;38.51;94389.13;5034964;28;20044;-80
2023/08/29 07:06:55;;;;;;;6.80;3.83;;;;;;;27.26;38.17;94400.69;5034730;28;20417;-79
2023/08/29 07:09:21;;;;;;;11.43;4.70;;;;;;;27.31;37.69;94407.66;5035430;28;20032;-80
2023/08/29 07:11:46;;;;;;;9.25;3.95;;;;;;;27.15;38.02;94413.59;5033219;28;20038;-80
2023/08/29 07:14:12;;;;;;;8.85;3.97;;;;;;;27.19;37.68;94413.56;5033371;28;20037;-80
2023/08/29 07:16:37;;;;;;;9.82;4.40;;;;;;;27.16;38.02;94392.56;5036300;28;20037;-80
2023/08/29 07:19:03;;;;;;;19.17;4.25;;;;;;;27.30;37.45;94410.78;5033606;28;20029;-81
2023/08/29 07:21:28;;;;;;;7.70;4.50;;;;;;;27.56;37.56;94451.09;5030926;28;20049;-80
2023/08/29 07:23:54;;;;;;;12.75;5.03;;;;;;;27.70;37.42;94450.22;5024370;28;20033;-80
2023/08/29 07:26:20;;;;;;;13.05;4.45;;;;;;;27.77;37.18;94440.03;5034735;28;20037;-80
2023/08/29 07:28:45;;;;;;;10.32;4.68;;;;;;;27.88;36.88;94448.16;5034583;28;20030;-80
2023/08/29 07:31:11;;;;;;;7.72;4.70;;;;;;;27.65;36.83;94407.84;5032471;28;20104;-80
2023/08/29 07:33:36;;;;;;;13.75;4.68;;;;;;;27.52;36.33;94398.56;5026372;28;20029;-80
2023/08/29 07:36:02;;;;;;;14.18;5.20;;;;;;;27.81;36.72;94432.63;5034088;28;20037;-80
2023/08/29 07:38:27;;;;;;;13.10;4.50;;;;;;;27.71;36.58;94403.50;5033420;28;20036;-80
2023/08/29 07:40:53;;;;;;;14.90;4.63;;;;;;;27.70;36.74;94417.53;5028371;28;20099;-81
2023/08/29 07:43:18;;;;;;;11.10;5.55;;;;;;;27.85;36.60;94443.47;5033968;28;20048;-79
2023/08/29 07:45:45;;;;;;;10.13;4.22;;;;;;;27.68;36.96;94382.53;5034917;28;20052;-79
2023/08/29 07:48:11;;;;;;;8.52;4.85;;;;;;;28.08;36.66;94429.28;5035173;28;20424;-79
2023/08/29 07:50:36;;;;;;;14.35;4.40;;;;;;;28.09;36.19;94422.66;5033942;28;20025;-79
2023/08/29 07:53:02;;;;;;;7.68;4.35;;;;;;;27.88;36.25;94380.81;5023890;28;20112;-79
2023/08/29 07:55:27;;;;;;;10.82;4.82;;;;;;;28.23;36.58;94428.00;5034390;28;20087;-80
2023/08/29 07:57:52;;;;;;;12.38;5.45;;;;;;;28.31;36.66;94446.63;5032623;28;20049;-80
2023/08/29 08:00:18;;;;;;;11.18;4.40;;;;;;;28.33;36.60;94454.41;5033179;28;20041;-82
2023/08/29 08:02:44;;;;;;;6.97;4.13;;;;;;;28.19;35.66;94419.09;5034796;28;20108;-80
2023/08/29 08:05:18;;;;;;;9.60;4.30;;;;;;;28.11;36.13;94421.09;5032996;28;20087;-81
2023/08/29 08:07:45;;;;;;;6.22;4.18;;;;;;;28.42;35.92;94435.63;5033324;28;20048;-80
2023/08/29 08:10:12;;;;;;;14.07;4.75;;;;;;;28.28;36.71;94433.81;5034804;28;20038;-79
2023/08/29 08:12:38;;;;;;;16.50;4.78;;;;;;;28.23;36.52;94408.91;5033911;28;20064;-79
2023/08/29 08:15:05;;;;;;;8.40;4.55;;;;;;;28.53;35.58;94428.13;5034547;28;20103;-80
2023/08/29 08:17:32;;;;;;;9.38;4.50;;;;;;;28.44;36.38;94429.75;5022437;28;20037;-80
2023/08/29 08:19:57;;;;;;;8.55;4.32;;;;;;;28.22;35.65;94388.31;5024604;28;20033;-79
2023/08/29 08:22:23;;;;;;;10.90;5.13;;;;;;;28.61;35.50;94424.09;5019620;28;20038;-80
2023/08/29 08:24:49;;;;;;;6.75;4.65;;;;;;;28.74;35.71;94421.63;5026895;28;20059;-80
2023/08/29 08:27:14;;;;;;;7.07;4.50;;;;;;;28.88;35.54;94421.50;5033847;28;20500;-80
2023/08/29 08:29:40;;;;;;;8.32;5.50;;;;;;;28.50;35.85;94355.28;5031963;28;20033;-80
2023/08/29 08:32:05;;;;;;;11.57;4.97;;;;;;;28.93;35.26;94395.69;5032372;28;20048;-80
2023/08/29 08:34:31;;;;;;;7.50;4.43;;;;;;;29.05;34.88;94393.22;5032975;28;20501;-80
2023/08/29 08:36:56;;;;;;;14.00;5.07;;;;;;;28.78;35.19;94354.94;5024291;28;20061;-80
2023/08/29 08:39:22;;;;;;;6.13;4.28;;;;;;;28.79;35.49;94353.00;5033853;28;20453;-80
2023/08/29 08:41:48;;;;;;;6.18;4.40;;;;;;;29.13;35.30;94397.41;5032036;28;20029;-80
2023/08/29 08:44:17;;;;;;;11.77;4.45;;;;;;;28.89;34.22;94368.47;5032718;28;20036;-80
2023/08/29 08:46:44;;;;;;;7.68;4.60;;;;;;;29.00;34.99;94366.34;5032070;28;20056;-80
2023/08/29 08:49:10;;;;;;;6.28;3.90;;;;;;;29.25;34.88;94382.41;5065970;28;20037;-80
2023/08/29 08:51:37;;;;;;;14.43;4.75;;;;;;;29.11;34.46;94369.72;5031461;28;20038;-79
2023/08/29 08:54:04;;;;;;;13.63;4.47;;;;;;;29.22;35.02;94371.53;5030968;28;20131;-81
2023/08/29 08:56:29;;;;;;;9.65;4.75;;;;;;;29.31;34.76;94369.03;5033509;28;20505;-80
2023/08/29 08:58:55;;;;;;;11.82;4.57;;;;;;;29.30;34.58;94342.91;5032953;28;20040;-80
2023/08/29 09:01:21;;;;;;;6.55;4.38;;;;;;;29.64;34.51;94370.16;5033415;28;20084;-80
2023/08/29 09:03:46;;;;;;;12.65;4.70;;;;;;;29.65;33.95;94364.28;5018416;28;20048;-80
2023/08/29 09:06:14;;;;;;;15.80;4.60;;;;;;;29.90;33.59;94394.72;5025768;28;20037;-80
2023/08/29 09:08:40;;;;;;;14.00;4.72;;;;;;;30.05;33.74;94403.47;5045821;28;20029;-80
2023/08/29 09:11:06;;;;;;;8.02;4.60;;;;;;;29.97;32.90;94382.13;5033273;28;20049;-81
2023/08/29 09:13:32;;;;;;;7.68;3.97;;;;;;;30.04;33.03;94388.25;5031913;28;20547;-81
2023/08/29 09:15:58;;;;;;;12.07;4.65;;;;;;;30.26;32.99;94391.38;5032154;28;20265;-82
2023/08/29 09:18:25;;;;;;;7.85;4.68;;;;;;;29.99;33.10;94320.38;5031183;28;20088;-80
2023/08/29 09:20:54;;;;;;;12.40;5.28;;;;;;;30.47;33.09;94374.56;5033881;28;20041;-88
2023/08/29 09:23:25;;;;;;;12.07;4.75;;;;;;;30.43;33.24;94375.84;5035331;28;20060;-88
2023/08/29 09:25:58;;;;;;;9.90;4.78;;;;;;;30.31;32.82;94330.72;5038583;28;20036;-88
2023/08/29 09:28:29;;;;;;;12.77;4.65;;;;;;;30.66;33.01;94362.13;5038902;28;20041;-87
2023/08/29 09:30:55;;;;;;;11.88;5.20;;;;;;;30.54;33.08;94351.78;5032321;28;20033;-87
2023/08/29 09:33:21;;;;;;;6.68;4.40;;;;;;;30.47;32.51;94317.13;5032398;28;20033;-86
2023/08/29 09:35:48;;;;;;;11.43;5.38;;;;;;;30.74;32.38;94351.81;5033444;28;20044;-87
2023/08/29 09:38:15;;;;;;;13.23;5.43;;;;;;;30.70;32.40;94379.22;5033324;28;20029;-88
2023/08/29 09:40:52;;;;;;;11.95;5.72;;;;;;;30.48;32.63;94378.06;5032385;28;20048;-88
2023/08/29 09:43:19;;;;;;;5.88;4.78;;;;;;;30.24;32.68;94328.13;5032131;28;20055;-88
2023/08/29 09:45:52;;;;;;;12.95;5.10;;;;;;;30.39;32.65;94332.13;5031590;28;20037;-86
2023/08/29 09:48:18;;;;;;;8.20;4.43;;;;;;;30.60;32.67;94377.47;5028380;28;20026;-86
2023/08/29 09:50:45;;;;;;;8.15;5.20;;;;;;;30.57;32.81;94359.19;5022315;28;20116;-86
2023/08/29 09:53:14;;;;;;;8.77;4.22;;;;;;;30.66;32.89;94353.91;5032394;28;20033;-88
2023/08/29 09:55:44;;;;;;;5.57;4.40;;;;;;;30.82;32.59;94372.38;5033178;28;20053;-87
2023/08/29 09:58:10;;;;;;;10.90;4.87;;;;;;;30.66;33.26;94371.09;5032179;28;20057;-87
2023/08/29 10:00:37;;;;;;;7.18;4.50;;;;;;;30.55;32.63;94347.88;5032708;28;20761;-88
2023/08/29 10:03:07;;;;;;;6.60;4.85;;;;;;;30.67;32.68;94361.69;5030926;28;20047;-86
2023/08/29 10:05:35;;;;;;;11.90;4.47;;;;;;;30.57;32.71;94323.59;5030071;28;20033;-87
2023/08/29 10:08:11;;;;;;;11.65;6.93;;;;;;;30.86;32.74;94365.63;5031306;28;20040;-87
2023/08/29 10:10:41;;;;;;;12.68;4.85;;;;;;;30.76;32.30;94336.47;5034007;28;20067;-88
2023/08/29 10:13:08;;;;;;;14.85;5.00;;;;;;;30.96;32.82;94356.41;5031387;28;20045;-87
2023/08/29 10:15:35;;;;;;;15.43;5.50;;;;;;;31.00;32.45;94354.34;5032325;28;20490;-87
2023/08/29 10:18:01;;;;;;;12.40;6.28;;;;;;;30.93;32.52;94345.53;5034228;28;20041;-86
2023/08/29 10:20:27;;;;;;;10.65;6.22;;;;;;;31.02;33.02;94324.59;5044309;28;20037;-87
2023/08/29 10:22:54;;;;;;;9.90;4.35;;;;;;;31.17;32.64;94338.00;5031911;28;20104;-89
2023/08/29 10:25:23;;;;;;;8.50;5.40;;;;;;;31.30;32.38;94341.59;5032681;28;20034;-87
2023/08/29 10:27:49;;;;;;;8.40;4.40;;;;;;;31.23;31.92;94319.84;5032349;28;20072;-88
2023/08/29 10:30:15;;;;;;;10.25;6.10;;;;;;;31.33;32.73;94338.78;5033992;28;20040;-80
2023/08/29 10:32:42;;;;;;;5.53;4.60;;;;;;;31.52;32.36;94347.34;5033299;28;20033;-83
2023/08/29 10:35:17;;;;;;;11.30;4.80;;;;;;;31.34;32.17;94299.25;5037889;28;20045;-80
2023/08/29 10:37:43;;;;;;;9.80;4.88;;;;;;;31.66;31.79;94347.06;5026082;28;20124;-81
2023/08/29 10:40:11;;;;;;;8.43;4.97;;;;;;;31.55;31.58;94308.13;5016558;28;20044;-81
2023/08/29 10:42:51;;;;;;;9.95;5.07;;;;;;;31.60;31.96;94324.84;5034194;28;20068;-80
2023/08/29 10:45:18;;;;;;;11.27;6.00;;;;;;;31.32;31.70;94251.56;5032940;28;20056;-80
2023/08/29 10:47:47;;;;;;;7.90;5.75;;;;;;;31.69;32.65;94335.22;5033747;28;20021;-80
2023/08/29 10:50:18;;;;;;;10.18;5.25;;;;;;;31.55;32.12;94325.34;5033309;28;20068;-80
2023/08/29 10:52:44;;;;;;;10.82;7.35;;;;;;;31.29;32.56;94296.22;5032413;28;20112;-80
2023/08/29 10:55:22;;;;;;;13.95;5.15;;;;;;;30.73;32.73;94238.81;5031873;28;20045;-80
2023/08/29 10:57:48;;;;;;;22.02;13.15;;;;;;;30.93;32.97;94307.97;5033962;28;20057;-80
2023/08/29 11:00:52;;;;;;;11.63;4.90;;;;;;;31.05;32.71;94328.44;5033966;28;20025;-81
2023/08/29 11:03:48;;;;;;;18.63;7.22;;;;;;;31.20;32.72;94339.91;5033690;28;20374;-80
2023/08/29 11:06:15;;;;;;;8.90;4.88;;;;;;;31.14;32.90;94325.13;5032310;28;20029;-80
2023/08/29 11:08:40;;;;;;;13.35;9.25;;;;;;;30.95;32.93;94313.78;5016989;28;20037;-80
2023/08/29 11:11:13;;;;;;;10.15;6.18;;;;;;;31.06;33.11;94319.81;5031025;28;20040;-81
2023/08/29 11:13:59;;;;;;;9.30;5.72;;;;;;;31.03;33.04;94317.91;5031514;28;20148;-81
2023/08/29 11:16:26;;;;;;;7.95;5.03;;;;;;;30.94;33.47;94292.31;5036225;28;20496;-80
2023/08/29 11:19:05;;;;;;;7.95;4.60;;;;;;;30.74;33.37;94269.69;5034749;28;20025;-81
2023/08/29 11:21:31;;;;;;;9.85;5.22;;;;;;;30.72;33.54;94270.13;5025275;28;20128;-81
2023/08/29 11:23:58;;;;;;;18.52;11.07;;;;;;;30.72;33.79;94294.75;5027220;28;20130;-80
2023/08/29 11:26:24;;;;;;;10.60;5.25;;;;;;;30.56;33.27;94286.47;5037372;28;20581;-81